sensor_id;sensor_type;location;lat;lon;timestamp;temperature;humidity
13992;DHT22;7070;53.586;9.692;2023-03-01T00:00:02;-0.60;83.60
13992;DHT22;7070;53.586;9.692;2023-03-01T00:02:29;-0.60;83.60
13992;DHT22;7070;53.586;9.692;2023-03-01T00:04:56;-0.60;83.70
13992;DHT22;7070;53.586;9.692;2023-03-01T00:07:25;-0.70;83.50
13992;DHT22;7070;53.586;9.692;2023-03-01T00:09:51;-0.70;83.60
13992;DHT22;7070;53.586;9.692;2023-03-01T00:12:19;-0.70;83.60
13992;DHT22;7070;53.586;9.692;2023-03-01T00:14:46;-0.70;83.70
13992;DHT22;7070;53.586;9.692;2023-03-01T00:17:13;-0.80;83.60
13992;DHT22;7070;53.586;9.692;2023-03-01T00:19:40;-0.80;83.80
13992;DHT22;7070;53.586;9.692;2023-03-01T00:22:07;-0.80;83.80
13992;DHT22;7070;53.586;9.692;2023-03-01T00:24:35;-0.80;83.80
13992;DHT22;7070;53.586;9.692;2023-03-01T00:27:02;-0.90;83.70
13992;DHT22;7070;53.586;9.692;2023-03-01T00:29:29;-0.80;83.90
13992;DHT22;7070;53.586;9.692;2023-03-01T00:31:55;-0.80;84.00
13992;DHT22;7070;53.586;9.692;2023-03-01T00:34:22;-0.90;83.90
13992;DHT22;7070;53.586;9.692;2023-03-01T00:36:49;-0.90;83.90
13992;DHT22;7070;53.586;9.692;2023-03-01T00:39:16;-0.90;83.90
13992;DHT22;7070;53.586;9.692;2023-03-01T00:41:44;-0.90;83.90
13992;DHT22;7070;53.586;9.692;2023-03-01T00:44:11;-0.90;83.90
13992;DHT22;7070;53.586;9.692;2023-03-01T00:46:38;-1.00;83.80
13992;DHT22;7070;53.586;9.692;2023-03-01T00:49:05;-1.00;83.90
13992;DHT22;7070;53.586;9.692;2023-03-01T00:51:32;-0.90;84.00
13992;DHT22;7070;53.586;9.692;2023-03-01T00:54:00;-1.00;83.90
13992;DHT22;7070;53.586;9.692;2023-03-01T00:56:28;-1.00;83.90
13992;DHT22;7070;53.586;9.692;2023-03-01T00:58:57;-1.00;83.90
13992;DHT22;7070;53.586;9.692;2023-03-01T01:01:26;-1.00;83.90
13992;DHT22;7070;53.586;9.692;2023-03-01T01:03:57;-1.10;83.70
13992;DHT22;7070;53.586;9.692;2023-03-01T01:06:25;-1.00;83.80
13992;DHT22;7070;53.586;9.692;2023-03-01T01:08:53;-1.00;83.90
13992;DHT22;7070;53.586;9.692;2023-03-01T01:11:21;-1.10;83.80
13992;DHT22;7070;53.586;9.692;2023-03-01T01:13:49;-1.10;83.80
13992;DHT22;7070;53.586;9.692;2023-03-01T01:16:18;-1.10;83.90
13992;DHT22;7070;53.586;9.692;2023-03-01T01:18:45;-1.10;83.80
13992;DHT22;7070;53.586;9.692;2023-03-01T01:21:14;-1.10;83.80
13992;DHT22;7070;53.586;9.692;2023-03-01T01:23:42;-1.20;83.80
13992;DHT22;7070;53.586;9.692;2023-03-01T01:26:11;-1.20;83.80
13992;DHT22;7070;53.586;9.692;2023-03-01T01:28:38;-1.20;83.90
13992;DHT22;7070;53.586;9.692;2023-03-01T01:31:05;-1.20;83.80
13992;DHT22;7070;53.586;9.692;2023-03-01T01:33:34;-1.20;83.90
13992;DHT22;7070;53.586;9.692;2023-03-01T01:36:01;-1.20;84.00
13992;DHT22;7070;53.586;9.692;2023-03-01T01:38:28;-1.20;84.00
13992;DHT22;7070;53.586;9.692;2023-03-01T01:40:55;-1.20;84.00
13992;DHT22;7070;53.586;9.692;2023-03-01T01:43:23;-1.20;84.00
13992;DHT22;7070;53.586;9.692;2023-03-01T01:45:51;-1.10;84.10
13992;DHT22;7070;53.586;9.692;2023-03-01T01:48:23;-1.30;84.00
13992;DHT22;7070;53.586;9.692;2023-03-01T01:50:55;-1.30;84.00
13992;DHT22;7070;53.586;9.692;2023-03-01T01:53:24;-1.20;84.00
13992;DHT22;7070;53.586;9.692;2023-03-01T01:55:54;-1.30;84.00
13992;DHT22;7070;53.586;9.692;2023-03-01T01:58:24;-1.30;83.90
13992;DHT22;7070;53.586;9.692;2023-03-01T02:00:53;-1.20;84.10
13992;DHT22;7070;53.586;9.692;2023-03-01T02:03:23;-1.30;84.00
13992;DHT22;7070;53.586;9.692;2023-03-01T02:05:58;-1.30;83.90
13992;DHT22;7070;53.586;9.692;2023-03-01T02:08:29;-1.30;84.00
13992;DHT22;7070;53.586;9.692;2023-03-01T02:10:58;-1.30;84.70
13992;DHT22;7070;53.586;9.692;2023-03-01T02:13:26;-1.30;84.00
13992;DHT22;7070;53.586;9.692;2023-03-01T02:15:53;-1.30;84.00
13992;DHT22;7070;53.586;9.692;2023-03-01T02:18:21;-1.20;84.20
13992;DHT22;7070;53.586;9.692;2023-03-01T02:20:59;-1.30;84.00
13992;DHT22;7070;53.586;9.692;2023-03-01T02:23:27;-1.30;84.80
13992;DHT22;7070;53.586;9.692;2023-03-01T02:25:59;-1.40;83.90
13992;DHT22;7070;53.586;9.692;2023-03-01T02:28:31;-1.30;84.10
13992;DHT22;7070;53.586;9.692;2023-03-01T02:30:59;-1.30;84.00
13992;DHT22;7070;53.586;9.692;2023-03-01T02:33:44;-1.30;84.00
13992;DHT22;7070;53.586;9.692;2023-03-01T02:36:15;-1.40;83.90
13992;DHT22;7070;53.586;9.692;2023-03-01T02:38:44;-1.40;83.90
13992;DHT22;7070;53.586;9.692;2023-03-01T02:41:14;-1.40;83.90
13992;DHT22;7070;53.586;9.692;2023-03-01T02:43:43;-1.40;84.00
13992;DHT22;7070;53.586;9.692;2023-03-01T02:46:15;-1.40;84.10
13992;DHT22;7070;53.586;9.692;2023-03-01T02:48:43;-1.50;83.90
13992;DHT22;7070;53.586;9.692;2023-03-01T02:51:26;-1.50;83.90
13992;DHT22;7070;53.586;9.692;2023-03-01T02:54:03;-1.50;83.90
13992;DHT22;7070;53.586;9.692;2023-03-01T02:56:32;-1.50;84.00
13992;DHT22;7070;53.586;9.692;2023-03-01T02:59:02;-1.50;83.90
13992;DHT22;7070;53.586;9.692;2023-03-01T03:01:29;-1.50;84.10
13992;DHT22;7070;53.586;9.692;2023-03-01T03:04:03;-1.50;84.10
13992;DHT22;7070;53.586;9.692;2023-03-01T03:06:31;-1.60;84.70
13992;DHT22;7070;53.586;9.692;2023-03-01T03:08:58;-1.60;84.00
13992;DHT22;7070;53.586;9.692;2023-03-01T03:11:25;-1.60;84.00
13992;DHT22;7070;53.586;9.692;2023-03-01T03:13:52;-1.50;84.00
13992;DHT22;7070;53.586;9.692;2023-03-01T03:16:21;-1.60;84.00
13992;DHT22;7070;53.586;9.692;2023-03-01T03:18:48;-1.70;83.90
13992;DHT22;7070;53.586;9.692;2023-03-01T03:21:16;-1.60;84.00
13992;DHT22;7070;53.586;9.692;2023-03-01T03:23:43;-1.60;84.00
13992;DHT22;7070;53.586;9.692;2023-03-01T03:26:10;-1.70;84.00
13992;DHT22;7070;53.586;9.692;2023-03-01T03:28:40;-1.70;84.10
13992;DHT22;7070;53.586;9.692;2023-03-01T03:31:08;-1.70;84.10
13992;DHT22;7070;53.586;9.692;2023-03-01T03:33:36;-1.70;84.30
13992;DHT22;7070;53.586;9.692;2023-03-01T03:36:04;-1.60;85.30
13992;DHT22;7070;53.586;9.692;2023-03-01T03:38:31;-1.60;84.80
13992;DHT22;7070;53.586;9.692;2023-03-01T03:41:04;-1.60;85.00
13992;DHT22;7070;53.586;9.692;2023-03-01T03:43:34;-1.40;85.30
13992;DHT22;7070;53.586;9.692;2023-03-01T03:46:02;-1.40;85.40
13992;DHT22;7070;53.586;9.692;2023-03-01T03:48:31;-1.30;85.70
13992;DHT22;7070;53.586;9.692;2023-03-01T03:51:00;-1.20;85.80
13992;DHT22;7070;53.586;9.692;2023-03-01T03:53:31;-1.10;85.90
13992;DHT22;7070;53.586;9.692;2023-03-01T03:55:59;-0.90;86.00
13992;DHT22;7070;53.586;9.692;2023-03-01T03:58:26;-0.90;85.90
13992;DHT22;7070;53.586;9.692;2023-03-01T04:00:55;-0.70;86.00
13992;DHT22;7070;53.586;9.692;2023-03-01T04:03:23;-0.70;85.80
13992;DHT22;7070;53.586;9.692;2023-03-01T04:05:51;-0.60;85.70
13992;DHT22;7070;53.586;9.692;2023-03-01T04:08:21;-0.60;85.70
13992;DHT22;7070;53.586;9.692;2023-03-01T04:10:50;-0.50;85.80
13992;DHT22;7070;53.586;9.692;2023-03-01T04:13:19;-0.50;85.70
13992;DHT22;7070;53.586;9.692;2023-03-01T04:15:47;-0.40;85.70
13992;DHT22;7070;53.586;9.692;2023-03-01T04:18:16;-0.40;85.70
13992;DHT22;7070;53.586;9.692;2023-03-01T04:20:43;-0.30;86.50
13992;DHT22;7070;53.586;9.692;2023-03-01T04:23:12;-0.20;85.80
13992;DHT22;7070;53.586;9.692;2023-03-01T04:25:46;-0.20;85.70
13992;DHT22;7070;53.586;9.692;2023-03-01T04:28:15;-0.20;85.60
13992;DHT22;7070;53.586;9.692;2023-03-01T04:30:42;-0.20;85.40
13992;DHT22;7070;53.586;9.692;2023-03-01T04:33:10;-0.20;85.20
13992;DHT22;7070;53.586;9.692;2023-03-01T04:35:37;-0.20;85.10
13992;DHT22;7070;53.586;9.692;2023-03-01T04:38:06;-0.20;84.90
13992;DHT22;7070;53.586;9.692;2023-03-01T04:40:33;-0.20;84.80
13992;DHT22;7070;53.586;9.692;2023-03-01T04:43:02;-0.20;84.80
13992;DHT22;7070;53.586;9.692;2023-03-01T04:45:29;-0.20;84.90
13992;DHT22;7070;53.586;9.692;2023-03-01T04:47:56;-0.20;85.00
13992;DHT22;7070;53.586;9.692;2023-03-01T04:50:23;-0.20;85.30
13992;DHT22;7070;53.586;9.692;2023-03-01T04:52:51;-0.20;85.40
13992;DHT22;7070;53.586;9.692;2023-03-01T04:55:19;-0.20;85.70
13992;DHT22;7070;53.586;9.692;2023-03-01T04:57:46;-0.10;85.80
13992;DHT22;7070;53.586;9.692;2023-03-01T05:00:15;-0.10;85.90
13992;DHT22;7070;53.586;9.692;2023-03-01T05:02:50;0.00;86.10
13992;DHT22;7070;53.586;9.692;2023-03-01T05:05:24;1.80;87.80
13992;DHT22;7070;53.586;9.692;2023-03-01T05:07:53;0.20;86.50
13992;DHT22;7070;53.586;9.692;2023-03-01T05:10:20;0.30;86.60
13992;DHT22;7070;53.586;9.692;2023-03-01T05:12:47;0.40;86.70
13992;DHT22;7070;53.586;9.692;2023-03-01T05:15:15;0.50;86.80
13992;DHT22;7070;53.586;9.692;2023-03-01T05:17:42;0.70;87.00
13992;DHT22;7070;53.586;9.692;2023-03-01T05:20:10;0.70;87.00
13992;DHT22;7070;53.586;9.692;2023-03-01T05:22:37;0.90;87.10
13992;DHT22;7070;53.586;9.692;2023-03-01T05:25:04;1.00;87.10
13992;DHT22;7070;53.586;9.692;2023-03-01T05:27:32;1.10;87.20
13992;DHT22;7070;53.586;9.692;2023-03-01T05:29:59;1.20;87.10
13992;DHT22;7070;53.586;9.692;2023-03-01T05:32:40;1.30;87.20
13992;DHT22;7070;53.586;9.692;2023-03-01T05:35:08;1.40;87.10
13992;DHT22;7070;53.586;9.692;2023-03-01T05:37:39;1.50;87.10
13992;DHT22;7070;53.586;9.692;2023-03-01T05:40:08;1.50;87.00
13992;DHT22;7070;53.586;9.692;2023-03-01T05:42:42;1.60;86.90
13992;DHT22;7070;53.586;9.692;2023-03-01T05:45:09;1.70;87.00
13992;DHT22;7070;53.586;9.692;2023-03-01T05:47:39;1.70;86.90
13992;DHT22;7070;53.586;9.692;2023-03-01T05:50:11;1.70;86.80
13992;DHT22;7070;53.586;9.692;2023-03-01T05:52:38;1.80;86.80
13992;DHT22;7070;53.586;9.692;2023-03-01T05:55:06;1.80;86.80
13992;DHT22;7070;53.586;9.692;2023-03-01T05:57:33;1.90;86.80
13992;DHT22;7070;53.586;9.692;2023-03-01T05:59:59;1.90;86.70
13992;DHT22;7070;53.586;9.692;2023-03-01T06:02:26;2.00;86.80
13992;DHT22;7070;53.586;9.692;2023-03-01T06:04:56;2.10;86.80
13992;DHT22;7070;53.586;9.692;2023-03-01T06:07:23;2.10;86.80
13992;DHT22;7070;53.586;9.692;2023-03-01T06:09:49;2.20;86.70
13992;DHT22;7070;53.586;9.692;2023-03-01T06:12:16;2.20;86.70
13992;DHT22;7070;53.586;9.692;2023-03-01T06:14:45;2.20;86.60
13992;DHT22;7070;53.586;9.692;2023-03-01T06:17:12;2.20;86.50
13992;DHT22;7070;53.586;9.692;2023-03-01T06:19:38;2.30;86.40
13992;DHT22;7070;53.586;9.692;2023-03-01T06:22:07;2.30;86.40
13992;DHT22;7070;53.586;9.692;2023-03-01T06:24:34;2.30;86.40
13992;DHT22;7070;53.586;9.692;2023-03-01T06:27:00;2.30;86.30
13992;DHT22;7070;53.586;9.692;2023-03-01T06:29:27;2.30;86.30
13992;DHT22;7070;53.586;9.692;2023-03-01T06:31:54;2.40;87.10
13992;DHT22;7070;53.586;9.692;2023-03-01T06:34:21;2.40;86.40
13992;DHT22;7070;53.586;9.692;2023-03-01T06:36:48;2.40;86.40
13992;DHT22;7070;53.586;9.692;2023-03-01T06:39:16;2.40;86.40
13992;DHT22;7070;53.586;9.692;2023-03-01T06:41:43;2.50;86.40
13992;DHT22;7070;53.586;9.692;2023-03-01T06:44:10;2.50;86.40
13992;DHT22;7070;53.586;9.692;2023-03-01T06:46:38;2.50;86.40
13992;DHT22;7070;53.586;9.692;2023-03-01T06:49:05;2.60;86.40
13992;DHT22;7070;53.586;9.692;2023-03-01T06:51:35;2.60;86.30
13992;DHT22;7070;53.586;9.692;2023-03-01T06:54:02;2.60;86.30
13992;DHT22;7070;53.586;9.692;2023-03-01T06:56:31;2.70;86.40
13992;DHT22;7070;53.586;9.692;2023-03-01T06:58:58;2.70;86.50
13992;DHT22;7070;53.586;9.692;2023-03-01T07:01:25;2.80;86.50
13992;DHT22;7070;53.586;9.692;2023-03-01T07:03:52;2.90;86.80
13992;DHT22;7070;53.586;9.692;2023-03-01T07:06:18;2.80;86.60
13992;DHT22;7070;53.586;9.692;2023-03-01T07:08:45;3.00;86.80
13992;DHT22;7070;53.586;9.692;2023-03-01T07:11:12;3.00;86.80
13992;DHT22;7070;53.586;9.692;2023-03-01T07:13:41;3.10;86.90
13992;DHT22;7070;53.586;9.692;2023-03-01T07:16:08;3.20;86.90
13992;DHT22;7070;53.586;9.692;2023-03-01T07:18:35;3.30;87.00
13992;DHT22;7070;53.586;9.692;2023-03-01T07:21:04;3.30;86.90
13992;DHT22;7070;53.586;9.692;2023-03-01T07:23:32;3.40;86.90
13992;DHT22;7070;53.586;9.692;2023-03-01T07:25:58;3.50;86.90
13992;DHT22;7070;53.586;9.692;2023-03-01T07:28:26;3.50;86.80
13992;DHT22;7070;53.586;9.692;2023-03-01T07:30:54;3.60;87.40
13992;DHT22;7070;53.586;9.692;2023-03-01T07:33:21;3.60;87.40
13992;DHT22;7070;53.586;9.692;2023-03-01T07:35:48;3.70;86.60
13992;DHT22;7070;53.586;9.692;2023-03-01T07:38:15;3.80;86.60
13992;DHT22;7070;53.586;9.692;2023-03-01T07:40:42;3.80;86.40
13992;DHT22;7070;53.586;9.692;2023-03-01T07:43:08;3.80;86.10
13992;DHT22;7070;53.586;9.692;2023-03-01T07:45:35;3.80;85.90
13992;DHT22;7070;53.586;9.692;2023-03-01T07:48:04;3.90;85.70
13992;DHT22;7070;53.586;9.692;2023-03-01T07:50:31;3.90;85.50
13992;DHT22;7070;53.586;9.692;2023-03-01T07:52:58;3.80;85.20
13992;DHT22;7070;53.586;9.692;2023-03-01T07:55:24;3.80;85.10
13992;DHT22;7070;53.586;9.692;2023-03-01T07:57:51;3.70;85.00
13992;DHT22;7070;53.586;9.692;2023-03-01T08:00:19;3.60;84.90
13992;DHT22;7070;53.586;9.692;2023-03-01T08:02:46;3.60;85.00
13992;DHT22;7070;53.586;9.692;2023-03-01T08:05:14;3.50;84.90
13992;DHT22;7070;53.586;9.692;2023-03-01T08:07:41;3.50;84.90
13992;DHT22;7070;53.586;9.692;2023-03-01T08:10:09;3.50;84.90
13992;DHT22;7070;53.586;9.692;2023-03-01T08:12:37;3.40;84.70
13992;DHT22;7070;53.586;9.692;2023-03-01T08:15:04;3.40;84.80
13992;DHT22;7070;53.586;9.692;2023-03-01T08:17:31;3.50;85.00
13992;DHT22;7070;53.586;9.692;2023-03-01T08:19:58;3.40;84.90
13992;DHT22;7070;53.586;9.692;2023-03-01T08:22:26;3.40;85.60
13992;DHT22;7070;53.586;9.692;2023-03-01T08:24:53;3.30;84.80
13992;DHT22;7070;53.586;9.692;2023-03-01T08:27:21;3.30;84.80
13992;DHT22;7070;53.586;9.692;2023-03-01T08:29:48;3.30;84.80
13992;DHT22;7070;53.586;9.692;2023-03-01T08:32:15;3.20;84.80
13992;DHT22;7070;53.586;9.692;2023-03-01T08:34:42;3.20;84.80
13992;DHT22;7070;53.586;9.692;2023-03-01T08:37:08;3.20;85.60
13992;DHT22;7070;53.586;9.692;2023-03-01T08:39:37;3.20;85.00
13992;DHT22;7070;53.586;9.692;2023-03-01T08:42:04;3.20;85.20
13992;DHT22;7070;53.586;9.692;2023-03-01T08:44:31;3.20;85.60
13992;DHT22;7070;53.586;9.692;2023-03-01T08:46:59;3.30;86.20
13992;DHT22;7070;53.586;9.692;2023-03-01T08:49:27;3.40;86.50
13992;DHT22;7070;53.586;9.692;2023-03-01T08:51:54;3.50;86.80
13992;DHT22;7070;53.586;9.692;2023-03-01T08:54:21;3.60;87.00
13992;DHT22;7070;53.586;9.692;2023-03-01T08:56:50;3.80;87.10
13992;DHT22;7070;53.586;9.692;2023-03-01T08:59:17;3.90;86.90
13992;DHT22;7070;53.586;9.692;2023-03-01T09:01:44;4.00;86.90
13992;DHT22;7070;53.586;9.692;2023-03-01T09:04:12;4.20;87.10
13992;DHT22;7070;53.586;9.692;2023-03-01T09:06:39;4.30;87.30
13992;DHT22;7070;53.586;9.692;2023-03-01T09:09:13;4.40;87.40
13992;DHT22;7070;53.586;9.692;2023-03-01T09:11:40;4.60;87.50
13992;DHT22;7070;53.586;9.692;2023-03-01T09:14:08;4.70;87.30
13992;DHT22;7070;53.586;9.692;2023-03-01T09:16:35;4.80;87.10
13992;DHT22;7070;53.586;9.692;2023-03-01T09:19:03;4.90;87.60
13992;DHT22;7070;53.586;9.692;2023-03-01T09:21:29;4.90;86.80
13992;DHT22;7070;53.586;9.692;2023-03-01T09:23:57;4.90;86.60
13992;DHT22;7070;53.586;9.692;2023-03-01T09:26:25;5.00;86.80
13992;DHT22;7070;53.586;9.692;2023-03-01T09:28:53;5.10;87.80
13992;DHT22;7070;53.586;9.692;2023-03-01T09:31:23;5.10;87.00
13992;DHT22;7070;53.586;9.692;2023-03-01T09:33:52;5.10;87.20
13992;DHT22;7070;53.586;9.692;2023-03-01T09:36:21;5.20;87.20
13992;DHT22;7070;53.586;9.692;2023-03-01T09:38:49;5.20;87.20
13992;DHT22;7070;53.586;9.692;2023-03-01T09:41:46;5.30;87.30
13992;DHT22;7070;53.586;9.692;2023-03-01T09:44:21;5.40;87.20
13992;DHT22;7070;53.586;9.692;2023-03-01T09:46:52;5.50;87.20
13992;DHT22;7070;53.586;9.692;2023-03-01T09:49:21;5.50;87.00
13992;DHT22;7070;53.586;9.692;2023-03-01T09:51:56;5.60;86.90
13992;DHT22;7070;53.586;9.692;2023-03-01T09:54:23;5.60;86.70
13992;DHT22;7070;53.586;9.692;2023-03-01T09:57:07;5.60;86.70
13992;DHT22;7070;53.586;9.692;2023-03-01T09:59:51;5.60;86.70
13992;DHT22;7070;53.586;9.692;2023-03-01T10:02:30;5.60;86.80
13992;DHT22;7070;53.586;9.692;2023-03-01T10:05:05;5.70;87.70
13992;DHT22;7070;53.586;9.692;2023-03-01T10:07:40;5.80;86.90
13992;DHT22;7070;53.586;9.692;2023-03-01T10:10:21;5.80;86.70
13992;DHT22;7070;53.586;9.692;2023-03-01T10:12:53;5.90;86.50
13992;DHT22;7070;53.586;9.692;2023-03-01T10:15:25;5.90;86.40
13992;DHT22;7070;53.586;9.692;2023-03-01T10:17:57;5.90;86.30
13992;DHT22;7070;53.586;9.692;2023-03-01T10:20:33;6.00;86.30
13992;DHT22;7070;53.586;9.692;2023-03-01T10:23:04;6.00;86.00
13992;DHT22;7070;53.586;9.692;2023-03-01T10:25:44;6.00;86.50
13992;DHT22;7070;53.586;9.692;2023-03-01T10:28:17;6.00;85.50
13992;DHT22;7070;53.586;9.692;2023-03-01T10:30:44;5.90;85.00
13992;DHT22;7070;53.586;9.692;2023-03-01T10:33:19;5.90;85.00
13992;DHT22;7070;53.586;9.692;2023-03-01T10:35:48;5.90;84.90
13992;DHT22;7070;53.586;9.692;2023-03-01T10:38:16;5.90;85.10
13992;DHT22;7070;53.586;9.692;2023-03-01T10:40:55;5.90;85.30
13992;DHT22;7070;53.586;9.692;2023-03-01T10:43:26;5.90;85.30
13992;DHT22;7070;53.586;9.692;2023-03-01T10:45:56;7.90;86.90
13992;DHT22;7070;53.586;9.692;2023-03-01T10:48:26;5.90;85.10
13992;DHT22;7070;53.586;9.692;2023-03-01T10:51:05;6.00;85.00
13992;DHT22;7070;53.586;9.692;2023-03-01T10:53:34;6.00;85.00
13992;DHT22;7070;53.586;9.692;2023-03-01T10:56:04;6.00;84.90
13992;DHT22;7070;53.586;9.692;2023-03-01T10:58:32;6.00;84.70
13992;DHT22;7070;53.586;9.692;2023-03-01T11:01:01;6.10;84.80
13992;DHT22;7070;53.586;9.692;2023-03-01T11:03:30;6.10;84.70
13992;DHT22;7070;53.586;9.692;2023-03-01T11:06:01;6.10;84.60
13992;DHT22;7070;53.586;9.692;2023-03-01T11:08:38;6.10;84.50
13992;DHT22;7070;53.586;9.692;2023-03-01T11:11:23;6.10;84.60
13992;DHT22;7070;53.586;9.692;2023-03-01T11:13:55;6.10;84.60
13992;DHT22;7070;53.586;9.692;2023-03-01T11:16:28;6.20;84.60
13992;DHT22;7070;53.586;9.692;2023-03-01T11:19:04;6.10;84.60
13992;DHT22;7070;53.586;9.692;2023-03-01T11:21:33;6.20;84.50
13992;DHT22;7070;53.586;9.692;2023-03-01T11:24:01;6.20;84.70
13992;DHT22;7070;53.586;9.692;2023-03-01T11:26:31;6.20;84.70
13992;DHT22;7070;53.586;9.692;2023-03-01T11:29:05;6.30;84.70
13992;DHT22;7070;53.586;9.692;2023-03-01T11:31:33;6.30;84.40
13992;DHT22;7070;53.586;9.692;2023-03-01T11:34:06;6.30;84.20
13992;DHT22;7070;53.586;9.692;2023-03-01T11:36:43;6.30;84.40
13992;DHT22;7070;53.586;9.692;2023-03-01T11:39:20;6.30;85.40
13992;DHT22;7070;53.586;9.692;2023-03-01T11:42:00;6.40;84.90
13992;DHT22;7070;53.586;9.692;2023-03-01T11:44:29;6.40;85.00
13992;DHT22;7070;53.586;9.692;2023-03-01T11:47:30;6.60;85.30
13992;DHT22;7070;53.586;9.692;2023-03-01T11:50:24;6.70;85.50
13992;DHT22;7070;53.586;9.692;2023-03-01T11:53:01;6.90;85.50
13992;DHT22;7070;53.586;9.692;2023-03-01T11:55:51;7.10;85.60
13992;DHT22;7070;53.586;9.692;2023-03-01T11:58:35;7.20;85.40
13992;DHT22;7070;53.586;9.692;2023-03-01T12:01:29;7.30;85.30
13992;DHT22;7070;53.586;9.692;2023-03-01T12:04:23;7.40;85.10
13992;DHT22;7070;53.586;9.692;2023-03-01T12:06:59;7.50;84.80
13992;DHT22;7070;53.586;9.692;2023-03-01T12:09:43;7.60;84.70
13992;DHT22;7070;53.586;9.692;2023-03-01T12:12:27;7.70;84.90
13992;DHT22;7070;53.586;9.692;2023-03-01T12:18:02;7.90;84.70
13992;DHT22;7070;53.586;9.692;2023-03-01T12:20:34;8.00;84.40
13992;DHT22;7070;53.586;9.692;2023-03-01T12:23:25;8.00;84.00
13992;DHT22;7070;53.586;9.692;2023-03-01T12:26:05;8.00;84.20
13992;DHT22;7070;53.586;9.692;2023-03-01T12:28:53;8.10;84.50
13992;DHT22;7070;53.586;9.692;2023-03-01T12:31:38;8.10;84.40
13992;DHT22;7070;53.586;9.692;2023-03-01T12:34:16;8.20;84.30
13992;DHT22;7070;53.586;9.692;2023-03-01T12:37:03;8.20;84.00
13992;DHT22;7070;53.586;9.692;2023-03-01T12:39:51;8.30;83.90
13992;DHT22;7070;53.586;9.692;2023-03-01T12:42:30;8.40;83.90
13992;DHT22;7070;53.586;9.692;2023-03-01T12:45:26;8.40;84.00
13992;DHT22;7070;53.586;9.692;2023-03-01T12:48:14;8.40;83.90
13992;DHT22;7070;53.586;9.692;2023-03-01T12:50:47;8.50;83.90
13992;DHT22;7070;53.586;9.692;2023-03-01T12:53:22;8.60;83.60
13992;DHT22;7070;53.586;9.692;2023-03-01T12:55:53;8.60;82.80
13992;DHT22;7070;53.586;9.692;2023-03-01T12:58:26;8.60;82.40
13992;DHT22;7070;53.586;9.692;2023-03-01T13:01:05;8.50;82.30
13992;DHT22;7070;53.586;9.692;2023-03-01T13:04:10;8.40;82.00
13992;DHT22;7070;53.586;9.692;2023-03-01T13:06:46;8.30;81.60
13992;DHT22;7070;53.586;9.692;2023-03-01T13:09:20;8.10;81.20
13992;DHT22;7070;53.586;9.692;2023-03-01T13:11:51;8.00;81.40
13992;DHT22;7070;53.586;9.692;2023-03-01T13:14:51;7.90;81.50
13992;DHT22;7070;53.586;9.692;2023-03-01T13:17:31;7.90;81.80
13992;DHT22;7070;53.586;9.692;2023-03-01T13:19:59;7.80;82.00
13992;DHT22;7070;53.586;9.692;2023-03-01T13:22:28;7.70;82.10
13992;DHT22;7070;53.586;9.692;2023-03-01T13:25:02;7.80;82.60
13992;DHT22;7070;53.586;9.692;2023-03-01T13:27:32;7.80;82.60
13992;DHT22;7070;53.586;9.692;2023-03-01T13:30:00;7.80;82.50
13992;DHT22;7070;53.586;9.692;2023-03-01T13:32:32;7.90;82.70
13992;DHT22;7070;53.586;9.692;2023-03-01T13:35:00;7.90;82.60
13992;DHT22;7070;53.586;9.692;2023-03-01T13:37:35;7.90;82.20
13992;DHT22;7070;53.586;9.692;2023-03-01T13:42:50;7.80;81.60
13992;DHT22;7070;53.586;9.692;2023-03-01T13:45:20;7.70;81.40
13992;DHT22;7070;53.586;9.692;2023-03-01T13:47:51;7.60;81.60
13992;DHT22;7070;53.586;9.692;2023-03-01T13:50:22;7.60;81.90
13992;DHT22;7070;53.586;9.692;2023-03-01T13:52:53;7.50;82.00
13992;DHT22;7070;53.586;9.692;2023-03-01T13:55:25;7.50;82.00
13992;DHT22;7070;53.586;9.692;2023-03-01T13:57:57;7.50;81.90
13992;DHT22;7070;53.586;9.692;2023-03-01T14:00:35;7.40;81.80
13992;DHT22;7070;53.586;9.692;2023-03-01T14:03:10;7.30;81.70
13992;DHT22;7070;53.586;9.692;2023-03-01T14:05:37;7.30;81.70
13992;DHT22;7070;53.586;9.692;2023-03-01T14:08:17;7.20;81.60
13992;DHT22;7070;53.586;9.692;2023-03-01T14:10:54;7.10;81.60
13992;DHT22;7070;53.586;9.692;2023-03-01T14:13:35;7.00;81.80
13992;DHT22;7070;53.586;9.692;2023-03-01T14:16:17;7.00;82.00
13992;DHT22;7070;53.586;9.692;2023-03-01T14:18:52;6.90;82.00
13992;DHT22;7070;53.586;9.692;2023-03-01T14:21:20;6.80;82.20
13992;DHT22;7070;53.586;9.692;2023-03-01T14:23:48;6.80;82.20
13992;DHT22;7070;53.586;9.692;2023-03-01T14:26:20;6.80;82.40
13992;DHT22;7070;53.586;9.692;2023-03-01T14:28:49;6.70;82.40
13992;DHT22;7070;53.586;9.692;2023-03-01T14:31:32;6.70;82.40
13992;DHT22;7070;53.586;9.692;2023-03-01T14:34:01;6.70;82.70
13992;DHT22;7070;53.586;9.692;2023-03-01T14:36:30;6.60;82.70
13992;DHT22;7070;53.586;9.692;2023-03-01T14:38:57;6.60;82.80
13992;DHT22;7070;53.586;9.692;2023-03-01T14:41:32;6.60;82.90
13992;DHT22;7070;53.586;9.692;2023-03-01T14:44:03;6.60;83.70
13992;DHT22;7070;53.586;9.692;2023-03-01T14:46:34;6.60;83.10
13992;DHT22;7070;53.586;9.692;2023-03-01T14:49:03;6.60;83.10
13992;DHT22;7070;53.586;9.692;2023-03-01T14:51:34;6.50;83.00
13992;DHT22;7070;53.586;9.692;2023-03-01T14:54:01;6.50;83.00
13992;DHT22;7070;53.586;9.692;2023-03-01T14:56:43;6.50;83.00
13992;DHT22;7070;53.586;9.692;2023-03-01T14:59:11;6.50;83.00
13992;DHT22;7070;53.586;9.692;2023-03-01T15:01:40;6.50;83.10
13992;DHT22;7070;53.586;9.692;2023-03-01T15:04:11;6.50;83.20
13992;DHT22;7070;53.586;9.692;2023-03-01T15:06:38;6.40;83.20
13992;DHT22;7070;53.586;9.692;2023-03-01T15:09:06;6.40;83.20
13992;DHT22;7070;53.586;9.692;2023-03-01T15:11:37;6.40;83.20
13992;DHT22;7070;53.586;9.692;2023-03-01T15:14:26;6.40;83.30
13992;DHT22;7070;53.586;9.692;2023-03-01T15:16:52;6.30;83.30
13992;DHT22;7070;53.586;9.692;2023-03-01T15:19:20;6.30;83.30
13992;DHT22;7070;53.586;9.692;2023-03-01T15:21:49;6.30;84.00
13992;DHT22;7070;53.586;9.692;2023-03-01T15:24:17;6.20;83.40
13992;DHT22;7070;53.586;9.692;2023-03-01T15:26:50;6.20;83.50
13992;DHT22;7070;53.586;9.692;2023-03-01T15:29:23;6.20;83.50
13992;DHT22;7070;53.586;9.692;2023-03-01T15:31:57;6.20;83.60
13992;DHT22;7070;53.586;9.692;2023-03-01T15:34:27;6.10;83.50
13992;DHT22;7070;53.586;9.692;2023-03-01T15:36:54;6.10;83.50
13992;DHT22;7070;53.586;9.692;2023-03-01T15:39:37;6.00;83.50
13992;DHT22;7070;53.586;9.692;2023-03-01T15:42:06;5.90;83.40
13992;DHT22;7070;53.586;9.692;2023-03-01T15:44:35;5.90;83.50
13992;DHT22;7070;53.586;9.692;2023-03-01T15:47:07;5.90;83.50
13992;DHT22;7070;53.586;9.692;2023-03-01T15:49:38;5.80;83.50
13992;DHT22;7070;53.586;9.692;2023-03-01T15:52:10;5.80;83.50
13992;DHT22;7070;53.586;9.692;2023-03-01T15:54:39;5.70;83.50
13992;DHT22;7070;53.586;9.692;2023-03-01T15:57:10;5.70;83.70
13992;DHT22;7070;53.586;9.692;2023-03-01T15:59:38;5.70;83.80
13992;DHT22;7070;53.586;9.692;2023-03-01T16:02:10;5.60;83.70
13992;DHT22;7070;53.586;9.692;2023-03-01T16:04:39;5.60;83.70
13992;DHT22;7070;53.586;9.692;2023-03-01T16:07:05;5.50;83.70
13992;DHT22;7070;53.586;9.692;2023-03-01T16:09:33;5.40;83.50
13992;DHT22;7070;53.586;9.692;2023-03-01T16:11:59;5.40;83.70
13992;DHT22;7070;53.586;9.692;2023-03-01T16:14:27;5.40;83.80
13992;DHT22;7070;53.586;9.692;2023-03-01T16:16:54;5.30;83.80
13992;DHT22;7070;53.586;9.692;2023-03-01T16:19:22;5.30;83.70
13992;DHT22;7070;53.586;9.692;2023-03-01T16:21:49;5.10;83.50
13992;DHT22;7070;53.586;9.692;2023-03-01T16:24:16;5.20;83.70